sensor_id;sensor_type;location;lat;lon;timestamp;pressure;altitude;pressure_sealevel;temperature;humidity
49759;BME280;35654;46.080;11.118;2023-02-19T00:01:15;100245.22;;;7.13;86.92
49759;BME280;35654;46.080;11.118;2023-02-19T00:03:46;100246.56;;;7.10;87.09
49759;BME280;35654;46.080;11.118;2023-02-19T00:06:14;100239.03;;;7.17;86.51
49759;BME280;35654;46.080;11.118;2023-02-19T00:08:40;100240.16;;;7.21;86.54
49759;BME280;35654;46.080;11.118;2023-02-19T00:11:18;100245.94;;;7.25;86.83
49759;BME280;35654;46.080;11.118;2023-02-19T00:13:47;100238.91;;;7.29;86.19
49759;BME280;35654;46.080;11.118;2023-02-19T00:16:42;100230.72;;;7.29;86.33
49759;BME280;35654;46.080;11.118;2023-02-19T00:19:12;100235.59;;;7.27;86.36
49759;BME280;35654;46.080;11.118;2023-02-19T00:21:39;100234.78;;;7.26;86.47
49759;BME280;35654;46.080;11.118;2023-02-19T00:24:06;100227.94;;;7.24;86.79
49759;BME280;35654;46.080;11.118;2023-02-19T00:26:34;100228.22;;;7.22;87.03
49759;BME280;35654;46.080;11.118;2023-02-19T00:29:01;100226.38;;;7.28;86.95
49759;BME280;35654;46.080;11.118;2023-02-19T00:31:31;100222.56;;;7.29;86.45
49759;BME280;35654;46.080;11.118;2023-02-19T00:34:01;100222.00;;;7.27;86.41
49759;BME280;35654;46.080;11.118;2023-02-19T00:36:29;100238.66;;;7.30;86.63
49759;BME280;35654;46.080;11.118;2023-02-19T00:38:57;100234.34;;;7.34;86.41
49759;BME280;35654;46.080;11.118;2023-02-19T00:41:24;100233.53;;;7.34;86.21
49759;BME280;35654;46.080;11.118;2023-02-19T00:43:58;100235.16;;;7.35;86.61
49759;BME280;35654;46.080;11.118;2023-02-19T00:46:33;100233.28;;;7.35;86.04
49759;BME280;35654;46.080;11.118;2023-02-19T00:49:00;100231.00;;;7.27;86.50
49759;BME280;35654;46.080;11.118;2023-02-19T00:51:29;100235.66;;;7.32;86.48
49759;BME280;35654;46.080;11.118;2023-02-19T00:53:57;100230.00;;;7.33;86.12
49759;BME280;35654;46.080;11.118;2023-02-19T00:56:24;100227.50;;;7.32;86.22
49759;BME280;35654;46.080;11.118;2023-02-19T00:58:51;100225.53;;;7.27;86.74
49759;BME280;35654;46.080;11.118;2023-02-19T01:01:18;100231.63;;;7.34;86.63
49759;BME280;35654;46.080;11.118;2023-02-19T01:03:45;100224.66;;;7.43;86.12
49759;BME280;35654;46.080;11.118;2023-02-19T01:06:14;100229.94;;;7.50;85.60
49759;BME280;35654;46.080;11.118;2023-02-19T01:08:41;100225.53;;;7.49;85.72
49759;BME280;35654;46.080;11.118;2023-02-19T01:11:08;100219.03;;;7.50;85.56
49759;BME280;35654;46.080;11.118;2023-02-19T01:13:36;100221.97;;;7.48;86.18
49759;BME280;35654;46.080;11.118;2023-02-19T01:16:21;100221.03;;;7.38;85.93
49759;BME280;35654;46.080;11.118;2023-02-19T01:18:50;100223.25;;;7.41;86.23
49759;BME280;35654;46.080;11.118;2023-02-19T01:21:19;100217.56;;;7.42;86.18
49759;BME280;35654;46.080;11.118;2023-02-19T01:23:50;100224.91;;;7.42;85.83
49759;BME280;35654;46.080;11.118;2023-02-19T01:26:23;100230.38;;;7.42;85.80
49759;BME280;35654;46.080;11.118;2023-02-19T01:28:50;100226.53;;;7.43;86.00
49759;BME280;35654;46.080;11.118;2023-02-19T01:31:20;100212.13;;;7.42;86.11
49759;BME280;35654;46.080;11.118;2023-02-19T01:33:52;100214.31;;;7.45;85.91
49759;BME280;35654;46.080;11.118;2023-02-19T01:36:19;100214.91;;;7.47;85.67
49759;BME280;35654;46.080;11.118;2023-02-19T01:38:46;100205.06;;;7.46;85.54
49759;BME280;35654;46.080;11.118;2023-02-19T01:41:15;100206.41;;;7.44;85.20
49759;BME280;35654;46.080;11.118;2023-02-19T01:44:00;100196.91;;;7.46;85.25
49759;BME280;35654;46.080;11.118;2023-02-19T01:46:27;100201.00;;;7.49;85.52
49759;BME280;35654;46.080;11.118;2023-02-19T01:49:19;100192.59;;;7.50;85.39
49759;BME280;35654;46.080;11.118;2023-02-19T01:51:46;100184.44;;;7.50;85.05
49759;BME280;35654;46.080;11.118;2023-02-19T01:54:16;100190.13;;;7.49;85.01
49759;BME280;35654;46.080;11.118;2023-02-19T01:56:46;100181.94;;;7.49;84.65
49759;BME280;35654;46.080;11.118;2023-02-19T01:59:15;100185.69;;;7.43;84.39
49759;BME280;35654;46.080;11.118;2023-02-19T02:01:41;100179.72;;;7.46;84.46
49759;BME280;35654;46.080;11.118;2023-02-19T02:04:09;100179.66;;;7.41;84.63
49759;BME280;35654;46.080;11.118;2023-02-19T02:06:48;100182.66;;;7.39;84.57
49759;BME280;35654;46.080;11.118;2023-02-19T02:09:17;100174.50;;;7.39;84.39
49759;BME280;35654;46.080;11.118;2023-02-19T02:12:03;100168.94;;;7.34;84.63
49759;BME280;35654;46.080;11.118;2023-02-19T02:14:33;100172.13;;;7.26;84.83
49759;BME280;35654;46.080;11.118;2023-02-19T02:20:32;100162.06;;;7.05;86.35
49759;BME280;35654;46.080;11.118;2023-02-19T02:23:16;100160.22;;;7.11;86.56
49759;BME280;35654;46.080;11.118;2023-02-19T02:26:34;100159.72;;;7.14;86.87
49759;BME280;35654;46.080;11.118;2023-02-19T02:32:15;100160.41;;;7.04;86.80
49759;BME280;35654;46.080;11.118;2023-02-19T02:34:53;100150.63;;;7.03;86.56
49759;BME280;35654;46.080;11.118;2023-02-19T02:37:23;100146.28;;;7.07;87.00
49759;BME280;35654;46.080;11.118;2023-02-19T02:39:52;100147.19;;;7.13;86.25
49759;BME280;35654;46.080;11.118;2023-02-19T02:42:19;100151.06;;;7.17;85.86
49759;BME280;35654;46.080;11.118;2023-02-19T02:44:56;100145.59;;;7.17;85.98
49759;BME280;35654;46.080;11.118;2023-02-19T02:47:46;100138.50;;;7.16;85.64
49759;BME280;35654;46.080;11.118;2023-02-19T02:50:24;100137.66;;;7.15;85.54
49759;BME280;35654;46.080;11.118;2023-02-19T02:52:55;100134.38;;;7.13;85.40
49759;BME280;35654;46.080;11.118;2023-02-19T02:55:46;100134.72;;;7.17;85.13
49759;BME280;35654;46.080;11.118;2023-02-19T02:58:15;100139.06;;;7.18;85.24
49759;BME280;35654;46.080;11.118;2023-02-19T03:00:44;100136.59;;;7.16;85.18
49759;BME280;35654;46.080;11.118;2023-02-19T03:03:34;100128.69;;;7.15;84.68
49759;BME280;35654;46.080;11.118;2023-02-19T03:06:05;100138.78;;;7.14;84.75
49759;BME280;35654;46.080;11.118;2023-02-19T03:08:40;100126.50;;;7.12;84.89
49759;BME280;35654;46.080;11.118;2023-02-19T03:11:11;100134.66;;;7.12;84.43
49759;BME280;35654;46.080;11.118;2023-02-19T03:14:09;100128.69;;;7.15;84.67
49759;BME280;35654;46.080;11.118;2023-02-19T03:16:59;100126.78;;;7.15;84.39
49759;BME280;35654;46.080;11.118;2023-02-19T03:19:51;100124.56;;;7.12;84.40
49759;BME280;35654;46.080;11.118;2023-02-19T03:22:22;100123.50;;;7.13;84.10
49759;BME280;35654;46.080;11.118;2023-02-19T03:25:29;100125.94;;;7.15;84.07
49759;BME280;35654;46.080;11.118;2023-02-19T03:28:07;100119.44;;;7.16;83.60
49759;BME280;35654;46.080;11.118;2023-02-19T03:30:39;100119.56;;;7.04;83.42
49759;BME280;35654;46.080;11.118;2023-02-19T03:33:16;100119.28;;;7.00;83.99
49759;BME280;35654;46.080;11.118;2023-02-19T03:35:55;100122.28;;;7.04;83.61
49759;BME280;35654;46.080;11.118;2023-02-19T03:38:39;100124.44;;;7.02;83.63
49759;BME280;35654;46.080;11.118;2023-02-19T03:41:24;100125.00;;;7.04;83.62
49759;BME280;35654;46.080;11.118;2023-02-19T03:44:09;100127.44;;;7.00;83.45
49759;BME280;35654;46.080;11.118;2023-02-19T03:46:55;100119.56;;;7.04;83.17
49759;BME280;35654;46.080;11.118;2023-02-19T03:52:40;100129.06;;;7.01;82.51
49759;BME280;35654;46.080;11.118;2023-02-19T04:00:26;100119.44;;;6.94;81.65
49759;BME280;35654;46.080;11.118;2023-02-19T04:06:01;100125.91;;;6.88;81.42
49759;BME280;35654;46.080;11.118;2023-02-19T04:08:30;100126.56;;;6.95;81.32
49759;BME280;35654;46.080;11.118;2023-02-19T04:11:00;100143.00;;;6.83;81.57
49759;BME280;35654;46.080;11.118;2023-02-19T04:13:30;100134.94;;;6.72;81.91
49759;BME280;35654;46.080;11.118;2023-02-19T04:16:02;100131.97;;;6.73;82.00
49759;BME280;35654;46.080;11.118;2023-02-19T04:18:32;100134.63;;;6.68;81.42
49759;BME280;35654;46.080;11.118;2023-02-19T04:21:02;100135.38;;;6.64;81.78
49759;BME280;35654;46.080;11.118;2023-02-19T04:23:35;100128.28;;;6.63;81.18
49759;BME280;35654;46.080;11.118;2023-02-19T04:26:04;100131.00;;;6.63;81.10
49759;BME280;35654;46.080;11.118;2023-02-19T04:28:33;100119.44;;;6.72;81.08
49759;BME280;35654;46.080;11.118;2023-02-19T04:31:00;100110.50;;;6.77;81.02
49759;BME280;35654;46.080;11.118;2023-02-19T04:33:27;100124.44;;;6.80;80.93
49759;BME280;35654;46.080;11.118;2023-02-19T04:35:54;100119.91;;;6.86;80.66
49759;BME280;35654;46.080;11.118;2023-02-19T04:38:20;100120.41;;;6.83;80.56
49759;BME280;35654;46.080;11.118;2023-02-19T04:40:47;100129.00;;;6.75;80.56
49759;BME280;35654;46.080;11.118;2023-02-19T04:43:14;100120.50;;;6.71;80.78
49759;BME280;35654;46.080;11.118;2023-02-19T04:45:40;100129.00;;;6.75;80.65
49759;BME280;35654;46.080;11.118;2023-02-19T04:48:07;100127.59;;;6.72;80.52
49759;BME280;35654;46.080;11.118;2023-02-19T04:50:37;100122.16;;;6.72;80.63
49759;BME280;35654;46.080;11.118;2023-02-19T04:53:05;100122.66;;;6.69;80.33
49759;BME280;35654;46.080;11.118;2023-02-19T04:55:36;100121.44;;;6.60;80.50
49759;BME280;35654;46.080;11.118;2023-02-19T04:58:04;100122.91;;;6.68;80.34
49759;BME280;35654;46.080;11.118;2023-02-19T05:00:31;100102.28;;;6.72;80.04
49759;BME280;35654;46.080;11.118;2023-02-19T05:02:59;100097.97;;;6.76;79.83
49759;BME280;35654;46.080;11.118;2023-02-19T05:05:26;100094.63;;;6.69;79.96
49759;BME280;35654;46.080;11.118;2023-02-19T05:07:53;100082.56;;;6.65;80.13
49759;BME280;35654;46.080;11.118;2023-02-19T05:10:19;100080.75;;;6.70;80.04
49759;BME280;35654;46.080;11.118;2023-02-19T05:12:46;100087.53;;;6.68;79.80
49759;BME280;35654;46.080;11.118;2023-02-19T05:15:12;100078.53;;;6.67;80.04
49759;BME280;35654;46.080;11.118;2023-02-19T05:17:39;100085.88;;;6.67;80.20
49759;BME280;35654;46.080;11.118;2023-02-19T05:20:06;100082.91;;;6.68;80.57
49759;BME280;35654;46.080;11.118;2023-02-19T05:22:33;100069.84;;;6.70;80.38
49759;BME280;35654;46.080;11.118;2023-02-19T05:25:00;100065.31;;;6.76;80.22
49759;BME280;35654;46.080;11.118;2023-02-19T05:27:26;100074.28;;;6.76;80.14
49759;BME280;35654;46.080;11.118;2023-02-19T05:29:55;100068.78;;;6.71;80.21
49759;BME280;35654;46.080;11.118;2023-02-19T05:32:22;100072.59;;;6.70;80.50
49759;BME280;35654;46.080;11.118;2023-02-19T05:34:50;100073.97;;;6.73;80.52
49759;BME280;35654;46.080;11.118;2023-02-19T05:37:16;100075.31;;;6.70;80.38
49759;BME280;35654;46.080;11.118;2023-02-19T05:39:43;100073.97;;;6.73;80.48
49759;BME280;35654;46.080;11.118;2023-02-19T05:42:12;100074.25;;;6.71;80.63
49759;BME280;35654;46.080;11.118;2023-02-19T05:44:40;100071.00;;;6.74;80.70
49759;BME280;35654;46.080;11.118;2023-02-19T05:47:06;100064.63;;;6.64;80.49
49759;BME280;35654;46.080;11.118;2023-02-19T05:49:33;100066.69;;;6.57;81.46
49759;BME280;35654;46.080;11.118;2023-02-19T05:51:59;100071.13;;;6.63;81.33
49759;BME280;35654;46.080;11.118;2023-02-19T05:54:29;100073.91;;;6.68;80.94
49759;BME280;35654;46.080;11.118;2023-02-19T05:56:56;100070.38;;;6.67;80.87
49759;BME280;35654;46.080;11.118;2023-02-19T05:59:24;100071.63;;;6.60;80.79
49759;BME280;35654;46.080;11.118;2023-02-19T06:01:51;100069.56;;;6.67;80.63
49759;BME280;35654;46.080;11.118;2023-02-19T06:04:18;100060.00;;;6.64;80.94
49759;BME280;35654;46.080;11.118;2023-02-19T06:06:45;100062.78;;;6.69;81.05
49759;BME280;35654;46.080;11.118;2023-02-19T06:09:11;100063.91;;;6.73;80.70
49759;BME280;35654;46.080;11.118;2023-02-19T06:11:38;100069.06;;;6.70;81.13
49759;BME280;35654;46.080;11.118;2023-02-19T06:14:04;100062.19;;;6.67;80.67
49759;BME280;35654;46.080;11.118;2023-02-19T06:16:32;100058.97;;;6.70;80.65
49759;BME280;35654;46.080;11.118;2023-02-19T06:19:03;100063.41;;;6.76;80.64
49759;BME280;35654;46.080;11.118;2023-02-19T06:21:30;100062.59;;;6.76;80.62
49759;BME280;35654;46.080;11.118;2023-02-19T06:23:57;100059.63;;;6.77;80.30
49759;BME280;35654;46.080;11.118;2023-02-19T06:26:24;100050.56;;;6.72;80.16
49759;BME280;35654;46.080;11.118;2023-02-19T06:28:52;100047.91;;;6.77;80.40
49759;BME280;35654;46.080;11.118;2023-02-19T06:31:20;100055.00;;;6.78;80.27
49759;BME280;35654;46.080;11.118;2023-02-19T06:33:47;100061.34;;;6.83;80.34
49759;BME280;35654;46.080;11.118;2023-02-19T06:36:18;100067.03;;;6.82;80.54
49759;BME280;35654;46.080;11.118;2023-02-19T06:38:45;100079.88;;;6.86;80.36
49759;BME280;35654;46.080;11.118;2023-02-19T06:41:12;100068.69;;;6.83;80.12
49759;BME280;35654;46.080;11.118;2023-02-19T06:43:39;100083.63;;;6.80;80.06
49759;BME280;35654;46.080;11.118;2023-02-19T06:46:06;100076.34;;;6.86;79.85
49759;BME280;35654;46.080;11.118;2023-02-19T06:48:33;100078.78;;;6.87;79.23
49759;BME280;35654;46.080;11.118;2023-02-19T06:51:00;100077.63;;;6.78;79.46
49759;BME280;35654;46.080;11.118;2023-02-19T06:53:26;100072.16;;;6.78;79.41
49759;BME280;35654;46.080;11.118;2023-02-19T06:56:04;100075.19;;;6.82;79.91
49759;BME280;35654;46.080;11.118;2023-02-19T06:58:32;100074.94;;;6.83;79.63
49759;BME280;35654;46.080;11.118;2023-02-19T07:00:59;100078.22;;;6.85;79.47
49759;BME280;35654;46.080;11.118;2023-02-19T07:03:27;100063.34;;;6.71;79.40
49759;BME280;35654;46.080;11.118;2023-02-19T07:05:53;100071.78;;;6.70;79.59
49759;BME280;35654;46.080;11.118;2023-02-19T07:08:20;100078.22;;;6.85;79.24
49759;BME280;35654;46.080;11.118;2023-02-19T07:10:56;100075.84;;;6.89;79.00
49759;BME280;35654;46.080;11.118;2023-02-19T07:13:24;100087.00;;;6.92;78.71
49759;BME280;35654;46.080;11.118;2023-02-19T07:15:58;100100.56;;;6.87;78.74
49759;BME280;35654;46.080;11.118;2023-02-19T07:18:25;100097.63;;;6.89;78.80
49759;BME280;35654;46.080;11.118;2023-02-19T07:20:52;100098.16;;;6.91;78.66
49759;BME280;35654;46.080;11.118;2023-02-19T07:23:19;100101.22;;;6.94;78.58
49759;BME280;35654;46.080;11.118;2023-02-19T07:25:46;100106.72;;;6.99;78.35
49759;BME280;35654;46.080;11.118;2023-02-19T07:28:12;100106.91;;;6.93;78.45
49759;BME280;35654;46.080;11.118;2023-02-19T07:30:39;100096.66;;;7.00;78.27
49759;BME280;35654;46.080;11.118;2023-02-19T07:33:05;100107.28;;;7.01;78.24
49759;BME280;35654;46.080;11.118;2023-02-19T07:35:32;100099.50;;;6.88;78.94
49759;BME280;35654;46.080;11.118;2023-02-19T07:37:57;100095.19;;;6.92;78.69
49759;BME280;35654;46.080;11.118;2023-02-19T07:40:23;100102.56;;;6.92;78.62
49759;BME280;35654;46.080;11.118;2023-02-19T07:42:48;100101.66;;;6.86;79.15
49759;BME280;35654;46.080;11.118;2023-02-19T07:45:13;100088.34;;;6.90;79.16
49759;BME280;35654;46.080;11.118;2023-02-19T07:47:39;100090.38;;;6.99;78.59
49759;BME280;35654;46.080;11.118;2023-02-19T07:50:04;100098.38;;;7.06;78.66
49759;BME280;35654;46.080;11.118;2023-02-19T07:52:32;100091.84;;;7.07;77.79
49759;BME280;35654;46.080;11.118;2023-02-19T07:54:59;100090.38;;;6.99;77.82
49759;BME280;35654;46.080;11.118;2023-02-19T07:57:29;100093.63;;;6.96;77.99
49759;BME280;35654;46.080;11.118;2023-02-19T07:59:56;100099.13;;;7.01;77.78
49759;BME280;35654;46.080;11.118;2023-02-19T08:02:25;100110.16;;;7.12;77.61
49759;BME280;35654;46.080;11.118;2023-02-19T08:05:10;100101.66;;;7.08;77.07
49759;BME280;35654;46.080;11.118;2023-02-19T08:07:36;100109.81;;;7.08;76.86
49759;BME280;35654;46.080;11.118;2023-02-19T08:10:02;100113.44;;;7.14;76.89
49759;BME280;35654;46.080;11.118;2023-02-19T08:13:00;100110.06;;;7.28;76.43
49759;BME280;35654;46.080;11.118;2023-02-19T08:15:45;100107.81;;;7.20;76.01
49759;BME280;35654;46.080;11.118;2023-02-19T08:18:13;100094.75;;;7.22;75.96
49759;BME280;35654;46.080;11.118;2023-02-19T08:20:40;100091.47;;;7.20;75.89
49759;BME280;35654;46.080;11.118;2023-02-19T08:23:08;100101.53;;;7.20;76.09
49759;BME280;35654;46.080;11.118;2023-02-19T08:25:35;100095.94;;;7.31;75.84
49759;BME280;35654;46.080;11.118;2023-02-19T08:28:03;100095.47;;;7.39;75.60
49759;BME280;35654;46.080;11.118;2023-02-19T08:30:31;100094.44;;;7.45;74.80
49759;BME280;35654;46.080;11.118;2023-02-19T08:32:58;100089.81;;;7.46;74.81
49759;BME280;35654;46.080;11.118;2023-02-19T08:35:24;100097.28;;;7.55;74.53
49759;BME280;35654;46.080;11.118;2023-02-19T08:37:50;100081.94;;;7.49;74.74
49759;BME280;35654;46.080;11.118;2023-02-19T08:40:17;100093.47;;;7.56;74.90
49759;BME280;35654;46.080;11.118;2023-02-19T08:42:43;100094.13;;;7.69;74.43
49759;BME280;35654;46.080;11.118;2023-02-19T08:45:10;100091.63;;;7.62;74.62
49759;BME280;35654;46.080;11.118;2023-02-19T08:47:35;100094.78;;;7.54;74.54
49759;BME280;35654;46.080;11.118;2023-02-19T08:50:02;100085.31;;;7.56;74.52
49759;BME280;35654;46.080;11.118;2023-02-19T08:52:29;100090.69;;;7.51;75.58
49759;BME280;35654;46.080;11.118;2023-02-19T08:54:55;100104.38;;;7.56;75.79
49759;BME280;35654;46.080;11.118;2023-02-19T08:57:22;100105.50;;;7.34;77.44
49759;BME280;35654;46.080;11.118;2023-02-19T08:59:48;100104.03;;;7.26;77.77
49759;BME280;35654;46.080;11.118;2023-02-19T09:02:15;100096.50;;;7.33;77.85
49759;BME280;35654;46.080;11.118;2023-02-19T09:04:43;100098.34;;;7.28;78.34
49759;BME280;35654;46.080;11.118;2023-02-19T09:07:11;100097.63;;;7.37;78.00
49759;BME280;35654;46.080;11.118;2023-02-19T09:09:38;100107.13;;;7.35;78.27
49759;BME280;35654;46.080;11.118;2023-02-19T09:12:10;100100.19;;;7.22;78.91
49759;BME280;35654;46.080;11.118;2023-02-19T09:14:38;100102.50;;;7.35;78.78
49759;BME280;35654;46.080;11.118;2023-02-19T09:17:06;100098.13;;;7.34;78.93
49759;BME280;35654;46.080;11.118;2023-02-19T09:19:33;100100.81;;;7.56;78.32
49759;BME280;35654;46.080;11.118;2023-02-19T09:22:00;100092.25;;;7.42;78.14
49759;BME280;35654;46.080;11.118;2023-02-19T09:24:25;100087.75;;;7.58;77.83
49759;BME280;35654;46.080;11.118;2023-02-19T09:26:52;100104.25;;;7.73;76.93
49759;BME280;35654;46.080;11.118;2023-02-19T09:29:18;100095.91;;;7.85;76.42
49759;BME280;35654;46.080;11.118;2023-02-19T09:31:44;100089.03;;;7.77;76.67
49759;BME280;35654;46.080;11.118;2023-02-19T09:34:10;100096.66;;;7.75;77.12
49759;BME280;35654;46.080;11.118;2023-02-19T09:36:36;100111.84;;;7.98;76.78
49759;BME280;35654;46.080;11.118;2023-02-19T09:39:03;100098.75;;;8.00;76.18
49759;BME280;35654;46.080;11.118;2023-02-19T09:43:57;100093.03;;;8.01;75.76
49759;BME280;35654;46.080;11.118;2023-02-19T09:48:52;100084.03;;;8.33;74.27
49759;BME280;35654;46.080;11.118;2023-02-19T09:51:20;100083.78;;;8.34;74.20
49759;BME280;35654;46.080;11.118;2023-02-19T09:53:49;100077.56;;;8.44;73.51
49759;BME280;35654;46.080;11.118;2023-02-19T09:56:15;100084.47;;;8.56;73.00
49759;BME280;35654;46.080;11.118;2023-02-19T09:58:49;100079.59;;;8.68;72.83
49759;BME280;35654;46.080;11.118;2023-02-19T10:01:17;100071.38;;;8.63;72.27
49759;BME280;35654;46.080;11.118;2023-02-19T10:03:45;100072.16;;;8.54;72.40
49759;BME280;35654;46.080;11.118;2023-02-19T10:06:21;100074.13;;;8.63;71.92
49759;BME280;35654;46.080;11.118;2023-02-19T10:08:51;100063.84;;;8.86;70.90
49759;BME280;35654;46.080;11.118;2023-02-19T10:11:17;100070.75;;;9.03;70.56
49759;BME280;35654;46.080;11.118;2023-02-19T10:13:46;100056.25;;;8.93;70.47
49759;BME280;35654;46.080;11.118;2023-02-19T10:16:18;100060.66;;;9.04;70.17
49759;BME280;35654;46.080;11.118;2023-02-19T10:18:45;100062.41;;;9.50;68.36
49759;BME280;35654;46.080;11.118;2023-02-19T10:21:20;100058.63;;;9.76;66.86
49759;BME280;35654;46.080;11.118;2023-02-19T10:23:50;100057.78;;;10.06;65.66
49759;BME280;35654;46.080;11.118;2023-02-19T10:26:16;100057.78;;;10.31;64.16
49759;BME280;35654;46.080;11.118;2023-02-19T10:28:42;100056.97;;;10.31;63.76
49759;BME280;35654;46.080;11.118;2023-02-19T10:31:21;100046.00;;;10.31;63.50
49759;BME280;35654;46.080;11.118;2023-02-19T10:33:52;100058.34;;;10.38;63.85
49759;BME280;35654;46.080;11.118;2023-02-19T10:38:53;100056.16;;;10.35;63.76
49759;BME280;35654;46.080;11.118;2023-02-19T10:41:20;100044.31;;;10.60;62.86
49759;BME280;35654;46.080;11.118;2023-02-19T10:46:44;100046.28;;;11.08;60.69
49759;BME280;35654;46.080;11.118;2023-02-19T10:51:47;100046.63;;;10.92;60.49
49759;BME280;35654;46.080;11.118;2023-02-19T10:54:39;100039.41;;;11.11;60.67
49759;BME280;35654;46.080;11.118;2023-02-19T10:57:15;100036.81;;;10.86;60.95
49759;BME280;35654;46.080;11.118;2023-02-19T11:00:18;100033.03;;;10.67;61.92
49759;BME280;35654;46.080;11.118;2023-02-19T11:02:43;100032.56;;;11.14;60.73
49759;BME280;35654;46.080;11.118;2023-02-19T11:07:37;100014.22;;;11.92;57.49
49759;BME280;35654;46.080;11.118;2023-02-19T11:10:04;100008.03;;;12.34;55.85
49759;BME280;35654;46.080;11.118;2023-02-19T11:12:32;100003.66;;;12.33;55.56
49759;BME280;35654;46.080;11.118;2023-02-19T11:15:22;100007.69;;;14.13;50.96
49759;BME280;35654;46.080;11.118;2023-02-19T11:20:38;99986.13;;;14.47;49.02
49759;BME280;35654;46.080;11.118;2023-02-19T11:23:16;99986.44;;;14.87;47.30
49759;BME280;35654;46.080;11.118;2023-02-19T11:25:47;99990.78;;;15.15;46.43
49759;BME280;35654;46.080;11.118;2023-02-19T11:30:48;99973.34;;;16.87;43.94
49759;BME280;35654;46.080;11.118;2023-02-19T11:35:44;99958.59;;;17.34;41.09
49759;BME280;35654;46.080;11.118;2023-02-19T11:38:10;99959.59;;;17.30;41.07
49759;BME280;35654;46.080;11.118;2023-02-19T11:40:40;99951.28;;;17.73;39.76
49759;BME280;35654;46.080;11.118;2023-02-19T11:43:19;99943.91;;;19.49;37.52
49759;BME280;35654;46.080;11.118;2023-02-19T11:48:44;99928.25;;;19.98;35.79
49759;BME280;35654;46.080;11.118;2023-02-19T11:53:46;99926.72;;;20.33;34.88
49759;BME280;35654;46.080;11.118;2023-02-19T11:56:18;99915.41;;;20.05;34.78
49759;BME280;35654;46.080;11.118;2023-02-19T11:59:01;99901.97;;;19.21;36.46
49759;BME280;35654;46.080;11.118;2023-02-19T12:17:40;99853.50;;;21.88;32.76
49759;BME280;35654;46.080;11.118;2023-02-19T12:37:56;99838.94;;;22.11;31.38
49759;BME280;35654;46.080;11.118;2023-02-19T12:43:22;99830.47;;;23.88;28.73
49759;BME280;35654;46.080;11.118;2023-02-19T12:45:57;99821.59;;;24.28;28.48
49759;BME280;35654;46.080;11.118;2023-02-19T12:48:55;99834.72;;;23.21;29.65
49759;BME280;35654;46.080;11.118;2023-02-19T12:51:49;99821.28;;;23.07;30.09
49759;BME280;35654;46.080;11.118;2023-02-19T12:54:22;99810.16;;;22.57;30.69
49759;BME280;35654;46.080;11.118;2023-02-19T12:56:55;99810.19;;;23.30;29.80
49759;BME280;35654;46.080;11.118;2023-02-19T12:59:28;99801.91;;;23.75;28.87
49759;BME280;35654;46.080;11.118;2023-02-19T13:09:37;99800.00;;;25.11;27.22
49759;BME280;35654;46.080;11.118;2023-02-19T13:12:18;99792.53;;;24.36;27.73
49759;BME280;35654;46.080;11.118;2023-02-19T13:14:50;99781.34;;;23.07;29.73
49759;BME280;35654;46.080;11.118;2023-02-19T13:19:51;99781.00;;;23.69;28.96
49759;BME280;35654;46.080;11.118;2023-02-19T13:22:30;99774.91;;;23.41;29.56
49759;BME280;35654;46.080;11.118;2023-02-19T13:25:16;99764.91;;;22.83;30.12
49759;BME280;35654;46.080;11.118;2023-02-19T13:27:56;99758.19;;;23.26;29.84
49759;BME280;35654;46.080;11.118;2023-02-19T13:30:59;99742.56;;;23.02;30.22
49759;BME280;35654;46.080;11.118;2023-02-19T13:36:33;99746.47;;;21.93;31.79
49759;BME280;35654;46.080;11.118;2023-02-19T13:39:03;99740.44;;;22.07;31.67
49759;BME280;35654;46.080;11.118;2023-02-19T13:41:40;99741.53;;;22.91;30.54
49759;BME280;35654;46.080;11.118;2023-02-19T13:44:29;99732.41;;;22.21;31.46
49759;BME280;35654;46.080;11.118;2023-02-19T13:46:56;99719.56;;;21.85;32.31
49759;BME280;35654;46.080;11.118;2023-02-19T13:51:58;99727.88;;;22.32;31.38
49759;BME280;35654;46.080;11.118;2023-02-19T13:54:42;99718.16;;;22.60;31.21
49759;BME280;35654;46.080;11.118;2023-02-19T13:59:55;99723.53;;;23.07;30.42
49759;BME280;35654;46.080;11.118;2023-02-19T14:02:28;99719.22;;;22.37;31.38
49759;BME280;35654;46.080;11.118;2023-02-19T14:05:07;99707.91;;;22.30;31.81
49759;BME280;35654;46.080;11.118;2023-02-19T14:10:52;99705.06;;;22.45;31.26
49759;BME280;35654;46.080;11.118;2023-02-19T14:13:58;99700.41;;;21.83;32.27
49759;BME280;35654;46.080;11.118;2023-02-19T14:19:43;99695.69;;;22.19;31.93
49759;BME280;35654;46.080;11.118;2023-02-19T14:25:40;99700.06;;;22.35;31.93
49759;BME280;35654;46.080;11.118;2023-02-19T14:28:20;99702.88;;;22.74;31.02
49759;BME280;35654;46.080;11.118;2023-02-19T14:33:20;99706.47;;;22.93;31.28
49759;BME280;35654;46.080;11.118;2023-02-19T14:35:52;99706.41;;;22.90;31.03
49759;BME280;35654;46.080;11.118;2023-02-19T14:38:29;99717.81;;;22.27;31.92
49759;BME280;35654;46.080;11.118;2023-02-19T14:40:58;99724.94;;;21.78;32.73
49759;BME280;35654;46.080;11.118;2023-02-19T14:43:27;99721.38;;;21.93;32.80
49759;BME280;35654;46.080;11.118;2023-02-19T14:45:56;99718.09;;;22.76;31.29
49759;BME280;35654;46.080;11.118;2023-02-19T14:48:40;99712.75;;;21.82;32.92
49759;BME280;35654;46.080;11.118;2023-02-19T14:51:35;99718.78;;;21.69;33.15
49759;BME280;35654;46.080;11.118;2023-02-19T14:54:04;99712.72;;;22.14;32.35
49759;BME280;35654;46.080;11.118;2023-02-19T14:56:36;99717.22;;;21.24;33.84
49759;BME280;35654;46.080;11.118;2023-02-19T14:59:08;99716.91;;;21.14;34.16
49759;BME280;35654;46.080;11.118;2023-02-19T15:01:53;99708.69;;;21.05;34.14
49759;BME280;35654;46.080;11.118;2023-02-19T15:04:26;99717.84;;;20.62;34.87
49759;BME280;35654;46.080;11.118;2023-02-19T15:06:54;99720.13;;;19.96;35.84